createdAt,value
2022-11-23T00:02:00.848Z,5.3
2022-11-23T00:07:39.687Z,5.3
2022-11-23T00:13:02.280Z,5.3
2022-11-23T00:18:26.527Z,5.4
2022-11-23T00:24:05.347Z,5.4
2022-11-23T00:29:43.165Z,5.4
2022-11-23T00:35:05.899Z,5.4
2022-11-23T00:40:44.185Z,5.4
2022-11-23T00:46:06.195Z,5.4
2022-11-23T00:51:44.406Z,5.4
2022-11-23T00:57:22.540Z,5.4
2022-11-23T01:03:00.734Z,5.4
2022-11-23T01:08:39.117Z,5.5
2022-11-23T01:14:16.845Z,5.5
2022-11-23T01:19:07.309Z,5.6
2022-11-23T01:24:29.529Z,5.6
2022-11-23T01:29:24.235Z,5.6
2022-11-23T01:34:37.181Z,5.6
2022-11-23T01:39:47.395Z,5.6
2022-11-23T01:44:53.624Z,5.6
2022-11-23T01:50:15.614Z,5.6
2022-11-23T01:55:42.525Z,5.6
2022-11-23T02:00:17.801Z,5.6
2022-11-23T02:05:55.009Z,5.6
2022-11-23T02:11:02.267Z,5.7
2022-11-23T02:16:42.170Z,5.7
2022-11-23T02:22:19.023Z,5.7
2022-11-23T02:27:57.982Z,5.7
2022-11-23T02:33:35.211Z,5.7
2022-11-23T02:38:57.136Z,5.8
2022-11-23T02:44:35.812Z,5.8
2022-11-23T02:50:13.078Z,5.8
2022-11-23T02:55:34.680Z,5.8
2022-11-23T03:01:13.047Z,5.8
2022-11-23T03:06:50.567Z,5.8
2022-11-23T03:12:27.364Z,5.8
2022-11-23T03:18:05.489Z,5.8
2022-11-23T03:23:27.478Z,5.8
2022-11-23T03:28:49.831Z,5.8
2022-11-23T03:34:27.290Z,5.7
2022-11-23T03:40:05.343Z,5.7
2022-11-23T03:45:43.158Z,5.7
2022-11-23T03:51:21.127Z,5.7
2022-11-23T03:56:59.043Z,5.8
2022-11-23T04:02:37.509Z,5.8
2022-11-23T04:08:15.283Z,5.7
2022-11-23T04:13:53.333Z,5.7
2022-11-23T04:18:59.623Z,5.6
2022-11-23T04:24:41.337Z,5.5
2022-11-23T04:30:18.878Z,5.4
2022-11-23T04:35:39.623Z,5.3
2022-11-23T04:41:02.475Z,5.3
2022-11-23T04:46:27.926Z,5.1
2022-11-23T04:52:08.542Z,5.1
2022-11-23T04:57:30.774Z,4.9
2022-11-23T05:03:09.035Z,4.9
2022-11-23T05:08:49.455Z,4.8
2022-11-23T05:14:27.734Z,4.8
2022-11-23T05:20:05.199Z,4.8
2022-11-23T05:25:41.693Z,4.7
2022-11-23T05:31:49.257Z,4.6
2022-11-23T05:37:16.035Z,4.6
2022-11-23T05:42:38.155Z,4.6
2022-11-23T05:47:47.274Z,4.5
2022-11-23T05:53:24.605Z,4.6
2022-11-23T05:58:30.963Z,4.6
2022-11-23T06:04:10.417Z,4.6
2022-11-23T06:09:33.267Z,4.6
2022-11-23T06:14:55.726Z,4.7
2022-11-23T06:20:33.806Z,4.9
2022-11-23T06:26:10.850Z,5
2022-11-23T06:31:50.653Z,5.2
2022-11-23T06:37:33.407Z,5.4
2022-11-23T06:43:43.377Z,5.7
2022-11-23T06:49:26.539Z,6.1
2022-11-23T06:55:04.504Z,6.7
2022-11-23T07:00:42.082Z,7.4
2022-11-23T07:06:20.561Z,8.9
2022-11-23T07:11:59.701Z,10.9
2022-11-23T07:17:37.190Z,13
2022-11-23T07:23:14.345Z,15.1
2022-11-23T07:34:25.095Z,18.6
2022-11-23T07:40:30.193Z,19.9
2022-11-23T07:46:39.364Z,21.4
2022-11-23T07:52:19.028Z,24.8
2022-11-23T07:57:58.370Z,32.6
2022-11-23T08:04:14.904Z,39.4
2022-11-23T08:09:58.298Z,31.6
2022-11-23T08:15:25.674Z,33.6
2022-11-23T08:21:04.103Z,42.5
2022-11-23T08:26:48.145Z,41.3
2022-11-23T08:32:26.563Z,40.6
2022-11-23T08:38:04.847Z,38.2
2022-11-23T08:43:49.667Z,33.7
2022-11-23T08:49:32.812Z,37.8
2022-11-23T08:55:00.832Z,42.8
2022-11-23T09:00:38.425Z,44.1
2022-11-23T09:06:22.766Z,45.6
2022-11-23T09:12:04.112Z,46.9
2022-11-23T09:17:45.937Z,46.3
2022-11-23T09:23:31.015Z,47.4
2022-11-23T09:29:15.593Z,49.9
2022-11-23T09:34:53.218Z,51.4
2022-11-23T09:40:57.837Z,52.6
2022-11-23T09:46:37.181Z,53.2
2022-11-23T09:52:15.488Z,52.3
2022-11-23T09:57:57.489Z,51.7
2022-11-23T10:03:20.506Z,53
2022-11-23T10:08:58.959Z,49.5
2022-11-23T10:14:41.496Z,45.4
2022-11-23T10:20:19.517Z,50.8
2022-11-23T10:25:57.357Z,53.3
2022-11-23T10:31:35.572Z,52.6
2022-11-23T10:37:18.647Z,50.9
2022-11-23T10:43:02.709Z,50.3
2022-11-23T10:48:41.006Z,44.7
2022-11-23T10:54:22.999Z,42.9
2022-11-23T11:00:00.461Z,47.5
2022-11-23T11:06:13.122Z,56.1
2022-11-23T11:11:55.830Z,48.6
2022-11-23T11:17:49.197Z,46.4
2022-11-23T11:23:26.892Z,47
2022-11-23T11:29:05.829Z,56.1
2022-11-23T11:34:49.078Z,53.9
2022-11-23T11:40:46.773Z,49.5
2022-11-23T11:47:01.628Z,43.8
2022-11-23T11:52:39.395Z,40.6
2022-11-23T11:58:02.038Z,39
2022-11-23T12:03:47.184Z,44.4
2022-11-23T12:09:13.141Z,51.1
2022-11-23T12:14:51.938Z,55.6
2022-11-23T12:21:38.445Z,49.8
2022-11-23T12:26:30.499Z,43.6
2022-11-23T12:32:08.728Z,39.6
2022-11-23T12:37:50.640Z,40.4
2022-11-23T12:43:29.902Z,44.9
2022-11-23T12:48:56.206Z,48.9
2022-11-23T12:54:35.271Z,50.9
2022-11-23T13:00:13.931Z,53.2
2022-11-23T13:05:37.330Z,45.9
2022-11-23T13:11:35.176Z,42.6
2022-11-23T13:17:16.193Z,42.6
2022-11-23T13:22:42.721Z,42.7
2022-11-23T13:28:27.273Z,39.7
2022-11-23T13:34:44.912Z,35.2
2022-11-23T13:40:56.107Z,31.6
2022-11-23T13:46:39.429Z,29.1
2022-11-23T13:52:46.925Z,27
2022-11-23T13:58:30.051Z,25.3
2022-11-23T14:04:14.683Z,23.6
2022-11-23T14:09:53.375Z,22.3
2022-11-23T14:15:32.030Z,21.1
2022-11-23T14:21:10.545Z,19.9
2022-11-23T14:26:20.070Z,19.1
2022-11-23T14:32:33.977Z,18.2
2022-11-23T14:38:12.772Z,17.4
2022-11-23T14:43:55.138Z,16.8
2022-11-23T14:49:34.895Z,16.1
2022-11-23T14:55:16.093Z,15.6
2022-11-23T15:00:54.654Z,15.2
2022-11-23T15:07:03.560Z,14.7
2022-11-23T15:12:26.898Z,14.3
2022-11-23T15:18:04.648Z,13.9
2022-11-23T15:23:46.005Z,13.5
2022-11-23T15:29:52.394Z,13.1
2022-11-23T15:35:50.131Z,12.9
2022-11-23T15:41:16.803Z,12.6
2022-11-23T15:46:57.591Z,12.4
2022-11-23T15:52:36.092Z,12.3
2022-11-23T15:58:19.007Z,12.2
2022-11-23T16:04:00.084Z,12.1
2022-11-23T16:10:17.657Z,12.1
2022-11-23T16:16:00.651Z,12
2022-11-23T16:21:39.257Z,11.9
2022-11-23T16:27:08.402Z,11.8
2022-11-23T16:32:52.349Z,11.8
2022-11-23T16:38:30.918Z,11.7
2022-11-23T16:44:10.947Z,11.6
2022-11-23T16:49:53.654Z,11.5
2022-11-23T16:56:16.248Z,11.4
2022-11-23T17:01:57.404Z,11.3
2022-11-23T17:07:05.714Z,11.2
2022-11-23T17:12:50.643Z,11.1
2022-11-23T17:18:34.887Z,11
2022-11-23T17:24:19.551Z,10.9
2022-11-23T17:30:03.419Z,10.9
2022-11-23T17:35:41.297Z,10.8
2022-11-23T17:41:19.947Z,10.7
2022-11-23T17:52:05.509Z,10.4
2022-11-23T17:57:43.307Z,10.3
2022-11-23T18:03:11.661Z,10.1
2022-11-23T18:08:50.667Z,10.1
2022-11-23T18:14:28.861Z,10
2022-11-23T18:20:07.752Z,10
2022-11-23T18:25:50.051Z,9.8
2022-11-23T18:31:35.335Z,9.6
2022-11-23T18:37:17.304Z,9.4
2022-11-23T18:42:45.967Z,9.3
2022-11-23T18:48:24.326Z,9.2
2022-11-23T18:53:50.291Z,9.1
2022-11-23T18:59:28.927Z,9.1
2022-11-23T19:05:27.697Z,9.1
2022-11-23T19:11:10.790Z,9.1
2022-11-23T19:16:50.146Z,9.1
2022-11-23T19:22:14.506Z,9.1
2022-11-23T19:27:58.035Z,8.9
2022-11-23T19:33:09.788Z,8.7
2022-11-23T19:38:33.825Z,8.5
2022-11-23T19:44:04.665Z,8.3
2022-11-23T19:49:51.998Z,8.1
2022-11-23T19:56:06.516Z,7.9
2022-11-23T20:01:30.512Z,7.9
2022-11-23T20:07:01.219Z,7.8
2022-11-23T20:12:46.533Z,7.8
2022-11-23T20:18:10.652Z,7.6
2022-11-23T20:23:52.290Z,7.4
2022-11-23T20:29:31.705Z,7.2
2022-11-23T20:35:06.253Z,7
2022-11-23T20:40:44.432Z,6.9
2022-11-23T20:46:08.143Z,6.8
2022-11-23T20:52:07.320Z,6.6
2022-11-23T20:57:50.602Z,6.4
2022-11-23T21:03:30.410Z,6.3
2022-11-23T21:09:22.205Z,6.3
2022-11-23T21:15:17.559Z,6.4
2022-11-23T21:20:55.955Z,6.5
2022-11-23T21:26:34.251Z,6.5
2022-11-23T21:32:12.415Z,6.6
2022-11-23T21:37:53.557Z,6.5
2022-11-23T21:43:20.370Z,6.4
2022-11-23T21:48:43.518Z,6.3
2022-11-23T21:53:50.949Z,6.2
2022-11-23T21:59:20.698Z,6.1
2022-11-23T22:05:04.155Z,5.9
2022-11-23T22:11:06.002Z,5.8
2022-11-23T22:16:29.584Z,5.7
2022-11-23T22:22:07.663Z,5.6
2022-11-23T22:27:49.853Z,5.5
2022-11-23T22:33:13.115Z,5.3
2022-11-23T22:38:39.290Z,5.1
2022-11-23T22:44:22.958Z,5
2022-11-23T22:50:04.942Z,4.8
2022-11-23T22:55:31.094Z,4.6
2022-11-23T23:01:08.996Z,4.4
2022-11-23T23:06:32.743Z,4.3
2022-11-23T23:12:10.024Z,4.2
2022-11-23T23:17:32.511Z,4.1
2022-11-23T23:22:55.291Z,3.9
2022-11-23T23:28:18.141Z,3.8
2022-11-23T23:33:56.044Z,3.8
2022-11-23T23:39:34.223Z,3.8
2022-11-23T23:45:11.006Z,3.7
2022-11-23T23:50:49.344Z,3.6
2022-11-23T23:56:27.581Z,3.6
